KDNV/DNV METAR and TAF weather

Enter ICAO airport designator
Station Type Date Time Source
KDNV METAR 2022/01/19 19:15 UTC NOAA

KDNV 191915Z AUTO 32016G22KT 10SM SCT090 BKN100 M04/M09 A3011 RMK AO2 T10401091


Station Type Date Time Source
KDNV Decoded METAR 2022/01/19 19:15 UTC NOAA

Danville, Vermilion County Airport, IL, United States (KDNV) 40-11-58N 087-35-44W
Jan 19, 2022 - 02:15 PM EST / 2022.01.19 1915 UTC
Wind: from the NW (320 degrees) at 18 MPH (16 KT) gusting to 25 MPH (22 KT):0
Visibility: 10 mile(s):0
Sky conditions: mostly cloudy
Temperature: 24.8 F (-4.0 C)
Windchill: 10 F (-12 C):1
Dew Point: 15.6 F (-9.1 C)
Relative Humidity: 67%
Pressure (altimeter): 30.11 in. Hg (1019 hPa)
ob: KDNV 191915Z AUTO 32016G22KT 10SM SCT090 BKN100 M04/M09 A3011 RMK AO2 T10401091
cycle: 19

Station Type Date Time Source
KDNV TAF UTC NOAA

Error!

Example: see airport list